createdAt,value
2019-01-09T00:01:59.891Z,100612.98
2019-01-09T00:04:29.099Z,100611.59
2019-01-09T00:06:58.370Z,100631.88
2019-01-09T00:09:27.798Z,100652.39
2019-01-09T00:11:57.338Z,100626.16
2019-01-09T00:14:26.831Z,100641.31
2019-01-09T00:16:56.450Z,100653.08
2019-01-09T00:19:25.573Z,100653.66
2019-01-09T00:21:54.802Z,100655.55
2019-01-09T00:24:24.003Z,100665.23
2019-01-09T00:26:53.578Z,100665.56
2019-01-09T00:29:23.101Z,100660.63
2019-01-09T00:31:52.949Z,100655.11
2019-01-09T00:34:22.182Z,100650.27
2019-01-09T00:36:51.347Z,100669.71
2019-01-09T00:39:20.561Z,100673.09
2019-01-09T00:41:49.935Z,100682.08
2019-01-09T00:44:20.067Z,100667.00
2019-01-09T00:46:49.243Z,100681.80
2019-01-09T00:49:18.410Z,100669.38
2019-01-09T00:51:47.922Z,100660.72
2019-01-09T00:54:17.101Z,100665.94
2019-01-09T00:56:46.296Z,100652.13
2019-01-09T00:59:16.074Z,100651.55
2019-01-09T01:01:51.205Z,100664.39
2019-01-09T01:04:53.373Z,100664.60
2019-01-09T01:07:58.327Z,100668.41
2019-01-09T01:11:17.898Z,100671.14
2019-01-09T01:14:43.189Z,100683.31
2019-01-09T01:17:41.501Z,100678.36
2019-01-09T01:20:34.573Z,100673.22
2019-01-09T01:23:47.079Z,100685.38
2019-01-09T01:26:47.570Z,100680.16
2019-01-09T01:30:03.222Z,100691.73
2019-01-09T01:33:00.668Z,100691.73
2019-01-09T01:36:03.394Z,100693.88
2019-01-09T01:39:11.366Z,100698.08
2019-01-09T01:42:10.551Z,100705.21
2019-01-09T01:45:06.100Z,100731.77
2019-01-09T01:48:21.170Z,100719.95
2019-01-09T01:51:20.639Z,100709.23
2019-01-09T01:54:17.515Z,100710.67
2019-01-09T01:57:18.895Z,100719.61
2019-01-09T02:00:32.616Z,100718.33
2019-01-09T02:03:28.503Z,100716.34
2019-01-09T02:06:29.008Z,100720.28
2019-01-09T02:09:33.527Z,100725.78
2019-01-09T02:12:18.965Z,100726.72
2019-01-09T02:15:32.296Z,100723.17
2019-01-09T02:18:23.134Z,100731.84
2019-01-09T02:21:12.192Z,100721.50
2019-01-09T02:24:15.876Z,100728.30
2019-01-09T02:27:12.128Z,100733.89
2019-01-09T02:30:25.443Z,100734.45
2019-01-09T02:32:54.956Z,100746.17
2019-01-09T02:35:25.813Z,100741.05
2019-01-09T02:37:55.606Z,100748.04
2019-01-09T02:40:25.083Z,100755.90
2019-01-09T02:42:54.750Z,100754.66
2019-01-09T02:45:24.219Z,100756.05
2019-01-09T02:47:53.384Z,100753.48
2019-01-09T02:50:23.001Z,100760.18
2019-01-09T02:52:52.165Z,100761.48
2019-01-09T02:55:21.320Z,100767.62
2019-01-09T02:57:56.581Z,100760.65
2019-01-09T03:00:21.651Z,100771.30
2019-01-09T03:02:51.577Z,100771.68
2019-01-09T03:05:21.226Z,100772.18
2019-01-09T03:07:50.745Z,100768.14
2019-01-09T03:10:20.208Z,100764.13
2019-01-09T03:12:49.434Z,100767.28
2019-01-09T03:15:19.008Z,100767.03
2019-01-09T03:17:48.529Z,100768.87
2019-01-09T03:20:18.048Z,100769.71
2019-01-09T03:22:47.283Z,100765.73
2019-01-09T03:25:16.881Z,100763.72
2019-01-09T03:27:46.552Z,100761.20
2019-01-09T03:30:16.182Z,100758.70
2019-01-09T03:32:45.662Z,100759.45
2019-01-09T03:35:14.833Z,100763.36
2019-01-09T03:37:44.060Z,100756.50
2019-01-09T03:40:13.532Z,100768.23
2019-01-09T03:42:42.932Z,100764.75
2019-01-09T03:45:12.888Z,100762.14
2019-01-09T03:47:42.025Z,100760.38
2019-01-09T03:50:11.883Z,100759.81
2019-01-09T03:52:41.703Z,100751.19
2019-01-09T03:55:10.882Z,100759.81
2019-01-09T03:57:40.047Z,100763.81
2019-01-09T04:00:09.666Z,100765.45
2019-01-09T04:02:38.968Z,100768.86
2019-01-09T04:05:09.209Z,100763.31
2019-01-09T04:07:38.746Z,100762.34
2019-01-09T04:10:09.236Z,100760.37
2019-01-09T04:12:38.999Z,100761.25
2019-01-09T04:15:09.515Z,100758.05
2019-01-09T04:17:39.036Z,100763.17
2019-01-09T04:20:08.785Z,100760.28
2019-01-09T04:22:38.206Z,100759.54
2019-01-09T04:25:07.373Z,100761.67
2019-01-09T04:27:36.526Z,100761.26
2019-01-09T04:30:06.222Z,100760.98
2019-01-09T04:32:36.060Z,100763.06
2019-01-09T04:35:05.387Z,100770.00
2019-01-09T04:37:34.559Z,100765.17
2019-01-09T04:40:03.911Z,100773.74
2019-01-09T04:42:33.802Z,100771.08
2019-01-09T04:45:02.991Z,100771.69
2019-01-09T04:47:32.172Z,100778.16
2019-01-09T04:50:01.686Z,100772.89
2019-01-09T04:52:31.245Z,100769.81
2019-01-09T04:55:00.515Z,100776.24
2019-01-09T04:57:31.308Z,100773.44
2019-01-09T05:00:00.529Z,100780.34
2019-01-09T05:02:30.452Z,100780.68
2019-01-09T05:05:00.375Z,100779.05
2019-01-09T05:07:29.532Z,100783.66
2019-01-09T05:09:58.737Z,100786.81
2019-01-09T05:12:28.597Z,100786.59
2019-01-09T05:14:58.281Z,100788.92
2019-01-09T05:17:27.484Z,100790.31
2019-01-09T05:19:57.395Z,100795.66
2019-01-09T05:22:26.625Z,100793.29
2019-01-09T05:24:55.780Z,100789.84
2019-01-09T05:27:25.325Z,100784.44
2019-01-09T05:29:54.553Z,100791.34
2019-01-09T05:32:24.144Z,100796.91
2019-01-09T05:34:53.354Z,100789.75
2019-01-09T05:37:22.539Z,100790.13
2019-01-09T05:39:51.982Z,100786.63
2019-01-09T05:42:21.204Z,100788.82
2019-01-09T05:44:51.029Z,100781.05
2019-01-09T05:47:20.208Z,100787.27
2019-01-09T05:49:49.437Z,100790.91
2019-01-09T05:52:18.706Z,100783.27
2019-01-09T05:54:48.230Z,100791.81
2019-01-09T05:57:18.170Z,100792.94
2019-01-09T05:59:47.449Z,100793.81
2019-01-09T06:02:16.645Z,100794.15
2019-01-09T06:04:46.053Z,100796.27
2019-01-09T06:07:18.527Z,100795.39
2019-01-09T06:09:46.819Z,100794.24
2019-01-09T06:12:16.054Z,100799.69
2019-01-09T06:14:45.182Z,100800.94
2019-01-09T06:17:14.395Z,100800.23
2019-01-09T06:19:43.906Z,100809.22
2019-01-09T06:22:13.636Z,100807.11
2019-01-09T06:24:42.867Z,100807.31
2019-01-09T06:27:12.418Z,100805.25
2019-01-09T06:29:41.833Z,100796.13
2019-01-09T06:32:11.336Z,100804.04
2019-01-09T06:34:40.850Z,100817.55
2019-01-09T06:37:10.349Z,100826.31
2019-01-09T06:39:39.881Z,100838.24
2019-01-09T06:42:09.061Z,100836.41
2019-01-09T06:44:38.318Z,100836.41
2019-01-09T06:47:09.211Z,100839.44
2019-01-09T06:49:38.480Z,100845.46
2019-01-09T06:52:08.076Z,100848.54
2019-01-09T06:54:37.342Z,100858.45
2019-01-09T06:57:06.489Z,100851.35
2019-01-09T06:59:35.661Z,100855.13
2019-01-09T07:02:04.849Z,100860.52
2019-01-09T07:04:34.168Z,100859.12
2019-01-09T07:07:03.376Z,100873.12
2019-01-09T07:09:32.939Z,100876.50
2019-01-09T07:12:02.567Z,100878.51
2019-01-09T07:14:32.039Z,100881.45
2019-01-09T07:17:01.249Z,100884.79
2019-01-09T07:19:30.406Z,100888.42
2019-01-09T07:21:59.937Z,100893.03
2019-01-09T07:24:29.135Z,100898.77
2019-01-09T07:26:58.333Z,100901.84
2019-01-09T07:29:27.529Z,100908.38
2019-01-09T07:31:56.767Z,100911.93
2019-01-09T07:34:26.361Z,100919.33
2019-01-09T07:36:55.492Z,100921.98
2019-01-09T07:39:25.339Z,100915.91
2019-01-09T07:41:54.671Z,100925.13
2019-01-09T07:44:24.151Z,100928.83
2019-01-09T07:47:43.142Z,100927.53
2019-01-09T07:50:12.297Z,100934.47
2019-01-09T07:52:41.513Z,100939.30
2019-01-09T07:55:10.841Z,100934.81
2019-01-09T07:57:40.088Z,100936.57
2019-01-09T08:00:10.689Z,100932.06
2019-01-09T08:02:39.866Z,100938.70
2019-01-09T08:05:09.377Z,100944.64
2019-01-09T08:07:38.554Z,100937.66
2019-01-09T08:10:09.926Z,100938.50
2019-01-09T08:12:39.151Z,100939.09
2019-01-09T08:15:09.526Z,100945.23
2019-01-09T08:17:38.727Z,100938.52
2019-01-09T08:20:09.423Z,100946.79
2019-01-09T08:22:39.295Z,100945.16
2019-01-09T08:25:08.845Z,100953.82
2019-01-09T08:27:38.717Z,100959.35
2019-01-09T08:30:10.147Z,100956.63
2019-01-09T08:32:39.663Z,100960.41
2019-01-09T08:35:09.365Z,100962.34
2019-01-09T08:37:39.325Z,100971.78
2019-01-09T08:40:09.878Z,100984.09
2019-01-09T08:42:39.364Z,100987.13
2019-01-09T08:45:09.464Z,100992.06
2019-01-09T08:47:39.173Z,100987.64
2019-01-09T08:50:09.606Z,100993.55
2019-01-09T08:52:39.217Z,101002.15
2019-01-09T08:55:09.716Z,101004.34
2019-01-09T08:57:39.252Z,101006.15
2019-01-09T09:00:10.876Z,101003.60
2019-01-09T09:02:40.058Z,101020.86
2019-01-09T09:05:09.294Z,101011.11
2019-01-09T09:07:39.594Z,101015.80
2019-01-09T09:10:11.027Z,101014.61
2019-01-09T09:12:40.889Z,101012.17
2019-01-09T09:15:12.611Z,101021.17
2019-01-09T09:17:42.152Z,101022.01
2019-01-09T09:20:11.896Z,101026.53
2019-01-09T09:22:41.176Z,101028.54
2019-01-09T09:25:10.660Z,101029.22
2019-01-09T09:27:39.812Z,101033.56
2019-01-09T09:30:10.248Z,101041.59
2019-01-09T09:32:39.402Z,101044.80
2019-01-09T09:35:08.749Z,101043.30
2019-01-09T09:37:38.279Z,101050.52
2019-01-09T09:40:08.355Z,101048.48
2019-01-09T09:42:37.904Z,101055.01
2019-01-09T09:45:08.271Z,101056.48
2019-01-09T09:47:38.047Z,101054.91
2019-01-09T09:50:08.878Z,101070.39
2019-01-09T09:52:38.010Z,101064.47
2019-01-09T09:55:12.791Z,101066.17
2019-01-09T09:57:38.835Z,101062.08
2019-01-09T10:00:13.266Z,101059.00
2019-01-09T10:02:42.419Z,101069.87
2019-01-09T10:05:11.653Z,101068.48
2019-01-09T10:07:40.809Z,101069.84
2019-01-09T10:10:11.383Z,101064.84
2019-01-09T10:12:40.909Z,101072.82
2019-01-09T10:15:11.054Z,101082.86
2019-01-09T10:17:40.689Z,101073.16
2019-01-09T10:20:13.526Z,101080.90
2019-01-09T10:22:42.674Z,101076.85
2019-01-09T10:25:11.840Z,101075.63
2019-01-09T10:27:41.063Z,101072.19
2019-01-09T10:30:14.407Z,101069.80
2019-01-09T10:32:44.009Z,101071.47
2019-01-09T10:35:13.151Z,101079.24
2019-01-09T10:37:42.402Z,101076.34
2019-01-09T10:40:13.995Z,101071.53
2019-01-09T10:42:43.253Z,101075.88
2019-01-09T10:45:13.975Z,101074.84
2019-01-09T10:47:43.526Z,101080.77
2019-01-09T10:50:12.922Z,101078.89
2019-01-09T10:52:42.353Z,101077.23
2019-01-09T10:55:12.402Z,101075.57
2019-01-09T10:57:41.569Z,101070.20
2019-01-09T11:00:14.864Z,101070.93
2019-01-09T11:02:44.362Z,101066.64
2019-01-09T11:05:13.705Z,101064.59
2019-01-09T11:07:43.135Z,101085.70
2019-01-09T11:10:12.882Z,101073.70
2019-01-09T11:12:42.355Z,101074.02
2019-01-09T11:15:11.832Z,101066.16
2019-01-09T11:17:41.077Z,101085.11
2019-01-09T11:20:13.721Z,101082.89
2019-01-09T11:22:43.251Z,101080.63
2019-01-09T11:25:21.160Z,101092.80
2019-01-09T11:27:50.862Z,101102.11
2019-01-09T11:30:20.390Z,101087.55
2019-01-09T11:32:49.515Z,101087.14
2019-01-09T11:35:21.336Z,101104.67
2019-01-09T11:37:50.537Z,101097.87
2019-01-09T11:40:20.376Z,101096.34
2019-01-09T11:42:49.570Z,101098.23
2019-01-09T11:45:19.301Z,101100.34
2019-01-09T11:47:48.759Z,101114.48
2019-01-09T11:50:18.040Z,101110.73
2019-01-09T11:52:47.570Z,101095.28
2019-01-09T11:55:16.755Z,101119.13
2019-01-09T11:57:45.973Z,101114.30
2019-01-09T12:00:23.905Z,101114.52
2019-01-09T12:02:53.750Z,101113.93
2019-01-09T12:05:22.941Z,101111.16
2019-01-09T12:07:52.086Z,101121.86
2019-01-09T12:10:29.962Z,101107.59
2019-01-09T12:12:54.161Z,101121.02
2019-01-09T12:15:23.396Z,101119.71
2019-01-09T12:17:52.575Z,101117.53
2019-01-09T12:20:21.895Z,101117.56
2019-01-09T12:22:51.048Z,101122.03
2019-01-09T12:25:20.475Z,101116.03
2019-01-09T12:27:49.686Z,101117.08
2019-01-09T12:30:24.633Z,101130.19
2019-01-09T12:32:54.026Z,101121.64
2019-01-09T12:35:23.642Z,101126.52
2019-01-09T12:37:52.948Z,101138.07
2019-01-09T12:40:22.114Z,101135.58
2019-01-09T12:42:51.415Z,101135.40
2019-01-09T12:45:20.682Z,101138.70
2019-01-09T12:47:50.228Z,101138.16
2019-01-09T12:50:21.835Z,101139.03
2019-01-09T12:52:52.647Z,101138.70
2019-01-09T12:55:22.288Z,101149.51
2019-01-09T12:57:51.486Z,101156.48
2019-01-09T13:00:23.084Z,101156.70
2019-01-09T13:02:52.282Z,101158.27
2019-01-09T13:05:21.877Z,101155.94
2019-01-09T13:07:51.466Z,101156.33
2019-01-09T13:10:21.082Z,101164.14
2019-01-09T13:12:52.647Z,101165.34
2019-01-09T13:15:22.102Z,101176.02
2019-01-09T13:17:51.560Z,101177.48
2019-01-09T13:20:20.761Z,101171.02
2019-01-09T13:22:49.919Z,101188.22
2019-01-09T13:25:19.441Z,101191.96
2019-01-09T13:27:48.979Z,101171.02
2019-01-09T13:30:20.153Z,101186.03
2019-01-09T13:32:49.333Z,101186.58
2019-01-09T13:35:18.909Z,101172.31
2019-01-09T13:37:48.304Z,101175.95
2019-01-09T13:40:19.052Z,101172.35
2019-01-09T13:42:48.423Z,101179.59
2019-01-09T13:45:19.487Z,101187.92
2019-01-09T13:47:48.713Z,101186.83
2019-01-09T13:50:18.287Z,101180.86
2019-01-09T13:52:47.516Z,101178.76
2019-01-09T13:55:17.086Z,101182.17
2019-01-09T13:57:46.310Z,101177.01
2019-01-09T14:00:18.010Z,101173.59
2019-01-09T14:02:47.935Z,101175.52
2019-01-09T14:05:17.811Z,101187.47
2019-01-09T14:07:47.014Z,101191.12
2019-01-09T14:10:21.823Z,101193.34
2019-01-09T14:12:51.048Z,101206.08
2019-01-09T14:15:21.047Z,101212.34
2019-01-09T14:17:50.601Z,101201.51
2019-01-09T14:20:19.778Z,101206.75
2019-01-09T14:22:49.355Z,101219.64
2019-01-09T14:25:18.561Z,101213.98
2019-01-09T14:27:47.776Z,101216.52
2019-01-09T14:30:25.417Z,101227.27
2019-01-09T14:32:54.589Z,101223.59
2019-01-09T14:35:24.083Z,101235.86
2019-01-09T14:37:53.281Z,101228.20
2019-01-09T14:40:22.503Z,101228.95
2019-01-09T14:42:51.806Z,101228.39
2019-01-09T14:45:21.389Z,101232.86
2019-01-09T14:47:50.916Z,101243.56
2019-01-09T14:50:22.334Z,101254.34
2019-01-09T14:52:51.528Z,101257.09
2019-01-09T14:55:20.693Z,101238.59
2019-01-09T14:57:49.896Z,101242.19
2019-01-09T15:00:24.067Z,101257.81
2019-01-09T15:02:53.463Z,101251.18
2019-01-09T15:05:23.403Z,101267.00
2019-01-09T15:07:52.885Z,101260.80
2019-01-09T15:10:24.639Z,101259.80
2019-01-09T15:12:54.166Z,101256.98
2019-01-09T15:15:23.694Z,101255.34
2019-01-09T15:17:52.876Z,101254.10
2019-01-09T15:20:22.750Z,101263.78
2019-01-09T15:22:51.935Z,101264.84
2019-01-09T15:25:21.495Z,101276.08
2019-01-09T15:27:50.987Z,101267.75
2019-01-09T15:30:22.880Z,101269.53
2019-01-09T15:32:52.136Z,101290.59
2019-01-09T15:35:21.834Z,101268.02
2019-01-09T15:37:51.010Z,101274.31
2019-01-09T15:40:22.185Z,101275.64
2019-01-09T15:42:51.478Z,101275.91
2019-01-09T15:45:21.429Z,101276.17
2019-01-09T15:47:50.894Z,101305.73
2019-01-09T15:50:20.964Z,101294.94
2019-01-09T15:52:50.749Z,101281.05
2019-01-09T15:55:20.695Z,101282.66
2019-01-09T15:57:50.676Z,101301.92
2019-01-09T16:00:25.625Z,101291.30
2019-01-09T16:02:54.911Z,101302.84
2019-01-09T16:05:24.121Z,101304.48
2019-01-09T16:07:53.672Z,101303.80
2019-01-09T16:10:23.180Z,101300.63
2019-01-09T16:12:52.674Z,101305.94
2019-01-09T16:15:22.236Z,101306.72
2019-01-09T16:17:51.874Z,101311.34
2019-01-09T16:20:21.465Z,101318.70
2019-01-09T16:22:50.712Z,101314.62
2019-01-09T16:25:19.872Z,101310.03
2019-01-09T16:27:51.447Z,101312.32
2019-01-09T16:30:33.970Z,101312.91
2019-01-09T16:32:59.266Z,101308.53
2019-01-09T16:35:29.957Z,101310.91
2019-01-09T16:37:59.474Z,101311.63
2019-01-09T16:40:28.697Z,101304.89
2019-01-09T16:42:58.188Z,101312.72
2019-01-09T16:45:27.598Z,101313.90
2019-01-09T16:47:56.932Z,101318.14
2019-01-09T16:50:26.279Z,101323.95
2019-01-09T16:52:56.052Z,101328.12
2019-01-09T16:55:26.227Z,101328.37
2019-01-09T16:57:55.801Z,101325.64
2019-01-09T17:00:27.159Z,101334.65
2019-01-09T17:02:56.304Z,101337.17
2019-01-09T17:05:25.483Z,101337.76
2019-01-09T17:07:55.707Z,101340.02
2019-01-09T17:10:32.254Z,101347.26
2019-01-09T17:12:56.459Z,101348.11
2019-01-09T17:15:25.987Z,101351.53
2019-01-09T17:17:55.493Z,101358.64
2019-01-09T17:20:24.771Z,101365.06
2019-01-09T17:22:54.067Z,101365.41
2019-01-09T17:25:23.242Z,101364.46
2019-01-09T17:27:52.639Z,101366.12
2019-01-09T17:30:24.368Z,101367.89
2019-01-09T17:32:53.545Z,101370.73
2019-01-09T17:35:23.491Z,101376.42
2019-01-09T17:37:52.948Z,101383.99
2019-01-09T17:40:22.694Z,101384.36
2019-01-09T17:42:52.478Z,101386.02
2019-01-09T17:45:21.716Z,101396.78
2019-01-09T17:47:51.199Z,101397.63
2019-01-09T17:50:26.413Z,101397.26
2019-01-09T17:52:55.873Z,101409.61
2019-01-09T17:55:25.062Z,101407.94
2019-01-09T17:57:54.341Z,101406.63
2019-01-09T18:00:29.676Z,101411.39
2019-01-09T18:02:59.064Z,101413.29
2019-01-09T18:05:28.532Z,101411.62
2019-01-09T18:07:58.302Z,101419.78
2019-01-09T18:10:27.858Z,101420.48
2019-01-09T18:12:57.081Z,101420.02
2019-01-09T18:15:26.950Z,101421.22
2019-01-09T18:17:56.861Z,101423.70
2019-01-09T18:20:26.832Z,101425.12
2019-01-09T18:22:55.992Z,101419.81
2019-01-09T18:25:26.703Z,101424.53
2019-01-09T18:27:56.237Z,101423.82
2019-01-09T18:30:31.449Z,101423.48
2019-01-09T18:33:10.370Z,101427.61
2019-01-09T18:36:24.329Z,101423.58
2019-01-09T18:39:19.277Z,101426.67
2019-01-09T18:42:38.827Z,101436.03
2019-01-09T18:45:20.414Z,101445.53
2019-01-09T18:48:38.552Z,101447.17
2019-01-09T18:52:09.926Z,101453.83
2019-01-09T18:54:39.897Z,101460.80
2019-01-09T18:57:09.069Z,101458.80
2019-01-09T18:59:38.591Z,101472.08
2019-01-09T19:02:08.515Z,101472.55
2019-01-09T19:04:37.887Z,101465.55
2019-01-09T19:07:08.130Z,101462.00
2019-01-09T19:09:38.739Z,101460.81
2019-01-09T19:12:07.963Z,101464.61
2019-01-09T19:14:37.230Z,101466.61
2019-01-09T19:17:06.847Z,101469.56
2019-01-09T19:19:36.969Z,101474.90
2019-01-09T19:22:06.197Z,101471.67
2019-01-09T19:24:35.715Z,101483.38
2019-01-09T19:27:07.329Z,101482.59
2019-01-09T19:29:37.312Z,101477.94
2019-01-09T19:32:07.611Z,101492.28
2019-01-09T19:34:37.200Z,101486.58
2019-01-09T19:37:06.728Z,101489.53
2019-01-09T19:39:35.879Z,101482.16
2019-01-09T19:42:05.262Z,101501.12
2019-01-09T19:44:34.855Z,101491.79
2019-01-09T19:47:04.038Z,101496.12
2019-01-09T19:49:33.345Z,101497.53
2019-01-09T19:52:03.016Z,101493.25
2019-01-09T19:54:32.589Z,101493.02
2019-01-09T19:57:02.178Z,101503.87
2019-01-09T19:59:32.692Z,101498.78
2019-01-09T20:02:01.884Z,101506.21
2019-01-09T20:04:31.360Z,101509.54
2019-01-09T20:07:00.847Z,101516.05
2019-01-09T20:09:30.082Z,101519.89
2019-01-09T20:12:00.053Z,101524.09
2019-01-09T20:14:29.379Z,101524.25
2019-01-09T20:16:58.533Z,101530.88
2019-01-09T20:19:27.889Z,101529.03
2019-01-09T20:21:57.331Z,101527.66
2019-01-09T20:24:26.813Z,101530.61
2019-01-09T20:26:56.208Z,101530.45
2019-01-09T20:29:25.806Z,101530.67
2019-01-09T20:31:55.363Z,101535.08
2019-01-09T20:34:25.071Z,101542.97
2019-01-09T20:36:54.255Z,101550.08
2019-01-09T20:39:23.822Z,101542.00
2019-01-09T20:41:53.733Z,101550.27
2019-01-09T20:44:23.349Z,101546.75
2019-01-09T20:46:52.686Z,101547.72
2019-01-09T20:49:22.510Z,101552.61
2019-01-09T20:51:51.708Z,101559.22
2019-01-09T20:54:21.402Z,101556.83
2019-01-09T20:56:50.598Z,101558.86
2019-01-09T20:59:20.144Z,101561.03
2019-01-09T21:01:49.765Z,101561.66
2019-01-09T21:04:19.211Z,101559.16
2019-01-09T21:06:48.370Z,101561.64
2019-01-09T21:09:17.881Z,101568.83
2019-01-09T21:11:47.610Z,101571.89
2019-01-09T21:14:17.134Z,101575.27
2019-01-09T21:16:46.340Z,101570.75
2019-01-09T21:19:15.560Z,101575.80
2019-01-09T21:21:45.167Z,101581.34
2019-01-09T21:24:14.374Z,101575.63
2019-01-09T21:26:43.896Z,101579.91
2019-01-09T21:29:13.079Z,101585.17
2019-01-09T21:31:42.582Z,101594.68
2019-01-09T21:34:12.117Z,101591.27
2019-01-09T21:36:41.511Z,101589.29
2019-01-09T21:39:11.416Z,101591.27
2019-01-09T21:41:40.631Z,101590.20
2019-01-09T21:44:15.869Z,101595.27
2019-01-09T21:46:46.084Z,101610.29
2019-01-09T21:49:12.101Z,101606.59
2019-01-09T21:51:41.476Z,101608.64
2019-01-09T21:54:10.908Z,101610.05
2019-01-09T21:56:40.436Z,101611.80
2019-01-09T21:59:09.994Z,101619.26
2019-01-09T22:01:39.522Z,101620.91
2019-01-09T22:04:09.027Z,101620.97
2019-01-09T22:06:38.468Z,101617.13
2019-01-09T22:09:08.737Z,101624.82
2019-01-09T22:11:37.924Z,101620.35
2019-01-09T22:14:07.175Z,101630.31
2019-01-09T22:16:36.410Z,101629.19
2019-01-09T22:19:11.838Z,101637.45
2019-01-09T22:21:36.953Z,101638.29
2019-01-09T22:24:06.264Z,101636.83
2019-01-09T22:26:35.814Z,101640.73
2019-01-09T22:29:05.079Z,101640.89
2019-01-09T22:31:34.649Z,101643.77
2019-01-09T22:34:04.536Z,101644.02
2019-01-09T22:36:34.011Z,101640.22
2019-01-09T22:39:03.202Z,101638.46
2019-01-09T22:41:32.388Z,101631.68
2019-01-09T22:44:01.850Z,101632.06
2019-01-09T22:46:31.423Z,101628.30
2019-01-09T22:49:00.590Z,101628.62
2019-01-09T22:51:30.467Z,101637.92
2019-01-09T22:53:59.611Z,101641.30
2019-01-09T22:56:29.509Z,101644.13
2019-01-09T22:58:58.699Z,101642.41
2019-01-09T23:01:29.686Z,101640.07
2019-01-09T23:03:59.329Z,101641.55
2019-01-09T23:06:28.483Z,101643.09
2019-01-09T23:08:58.372Z,101647.23
2019-01-09T23:11:27.562Z,101638.09
2019-01-09T23:13:57.073Z,101647.66
2019-01-09T23:16:26.246Z,101656.66
2019-01-09T23:18:55.525Z,101657.12
2019-01-09T23:21:24.716Z,101656.98
2019-01-09T23:23:54.176Z,101669.08
2019-01-09T23:26:23.549Z,101668.30
2019-01-09T23:28:52.638Z,101667.00
2019-01-09T23:31:22.280Z,101658.52
2019-01-09T23:33:51.763Z,101658.73
2019-01-09T23:36:20.901Z,101653.25
2019-01-09T23:38:50.088Z,101658.17
2019-01-09T23:41:19.259Z,101662.58
2019-01-09T23:43:48.805Z,101670.41
2019-01-09T23:46:18.290Z,101667.18
2019-01-09T23:48:47.784Z,101659.34
2019-01-09T23:51:16.929Z,101656.22
2019-01-09T23:53:46.477Z,101652.31
2019-01-09T23:56:15.793Z,101653.55
2019-01-09T23:58:45.308Z,101653.37
